Check out our new PWSWeather beta!
PWSweather.com
Personal Weather Stations
Station Observations
OBERT
Bodensee Hinterland, OberteuringenDE

Bodensee HinterlandOberteuringenDE

Lat: 47.714675, Lon: 9.44447

Elevation: 1427

Station Type: Wunder Weather Station

High Low Average
Temperature 48.5°F9.2°C 30.7°F-0.7°C 41.3°F5.2°C
Dew Point 44.1°F6.7°C 30.7°F-0.7°C 40.0°F4.4°C
Winds 11.4 mph 18.3 kmh Calm Calm 4.0 mph NE6.4 kmh NE
Wind Gusts 21.5 mph34.6 kmh -- 7.0 mph11.3 kmh
Humidity 100% 77% 95%
Pressure 30.31 in1026.4 mb 29.87 in1011.5 mb -
Precipitation 0.00 in0.0 mm - -
Hour Temp Dew Point Humidity Winds Wind Gusts Pressure Precip Precip Rate Daily Precip Total
12:28 AM 39.0°F3.9°C 39.0°F3.9°C 100% 1.4 mph 2.3 kmh 4.3 mph6.9 kmh 29.87 in1011.5 mb 0.00 in0.0 mm 0.00 in0.0 mm 0.00 in0.0 mm
12:58 AM 39.7°F4.3°C 39.7°F4.3°C 100% 3.1 mph 5.0 kmh 7.5 mph12.1 kmh 29.88 in1011.9 mb 0.00 in0.0 mm 0.00 in0.0 mm 0.00 in0.0 mm
01:28 AM 41.0°F5.0°C 41.0°F5.0°C 100% 5.8 mph N9.3 kmh N 14.0 mph22.5 kmh 29.90 in1012.5 mb 0.00 in0.0 mm 0.00 in0.0 mm 0.00 in0.0 mm
01:58 AM 41.1°F5.1°C 41.1°F5.1°C 100% 5.0 mph 8.0 kmh 10.0 mph16.1 kmh 29.91 in1012.9 mb 0.00 in0.0 mm 0.00 in0.0 mm 0.00 in0.0 mm
02:28 AM 41.5°F5.3°C 41.5°F5.3°C 100% 7.0 mph 11.3 kmh 12.5 mph20.1 kmh 29.93 in1013.5 mb 0.00 in0.0 mm 0.00 in0.0 mm 0.00 in0.0 mm
02:58 AM 40.4°F4.7°C 40.4°F4.7°C 100% 4.3 mph 6.9 kmh 9.0 mph14.5 kmh 29.94 in1013.9 mb 0.00 in0.0 mm 0.00 in0.0 mm 0.00 in0.0 mm
03:28 AM 39.9°F4.4°C 39.9°F4.4°C 100% 2.1 mph 3.4 kmh 6.8 mph10.9 kmh 29.95 in1014.2 mb 0.00 in0.0 mm 0.00 in0.0 mm 0.00 in0.0 mm
03:41 AM 39.9°F4.4°C 39.9°F4.4°C 100% 4.0 mph 6.4 kmh 7.1 mph11.4 kmh 29.95 in1014.2 mb 0.00 in0.0 mm 0.00 in0.0 mm 0.00 in0.0 mm
04:11 AM 40.6°F4.8°C 40.6°F4.8°C 100% 7.3 mph N11.7 kmh N 12.8 mph20.6 kmh 29.97 in1014.9 mb 0.00 in0.0 mm 0.00 in0.0 mm 0.00 in0.0 mm
04:41 AM 40.8°F4.9°C 40.8°F4.9°C 100% 5.2 mph N8.4 kmh N 9.3 mph15.0 kmh 29.99 in1015.6 mb 0.00 in0.0 mm 0.00 in0.0 mm 0.00 in0.0 mm
05:11 AM 40.6°F4.8°C 40.6°F4.8°C 100% 4.8 mph N7.7 kmh N 8.4 mph13.5 kmh 30.01 in1016.3 mb 0.00 in0.0 mm 0.00 in0.0 mm 0.00 in0.0 mm
05:41 AM 40.2°F4.6°C 40.2°F4.6°C 100% 5.4 mph N8.7 kmh N 10.6 mph17.1 kmh 30.02 in1016.6 mb 0.00 in0.0 mm 0.00 in0.0 mm 0.00 in0.0 mm
06:11 AM 39.9°F4.4°C 39.9°F4.4°C 100% 1.2 mph 1.9 kmh 5.6 mph9.0 kmh 30.04 in1017.3 mb 0.00 in0.0 mm 0.00 in0.0 mm 0.00 in0.0 mm
06:41 AM 40.6°F4.8°C 40.6°F4.8°C 100% 5.1 mph 8.2 kmh 8.7 mph14.0 kmh 30.05 in1017.6 mb 0.00 in0.0 mm 0.00 in0.0 mm 0.00 in0.0 mm
07:11 AM 40.6°F4.8°C 40.6°F4.8°C 100% 4.9 mph 7.9 kmh 8.1 mph13.0 kmh 30.08 in1018.6 mb 0.00 in0.0 mm 0.00 in0.0 mm 0.00 in0.0 mm
07:41 AM 40.6°F4.8°C 40.6°F4.8°C 100% 3.4 mph N5.5 kmh N 8.4 mph13.5 kmh 30.09 in1019.0 mb 0.00 in0.0 mm 0.00 in0.0 mm 0.00 in0.0 mm
08:11 AM 40.6°F4.8°C 40.6°F4.8°C 100% Calm Calm -- 30.11 in1019.6 mb 0.00 in0.0 mm 0.00 in0.0 mm 0.00 in0.0 mm
08:41 AM 41.9°F5.5°C 41.9°F5.5°C 100% 0.8 mph N1.3 kmh N 3.4 mph5.5 kmh 30.13 in1020.3 mb 0.00 in0.0 mm 0.00 in0.0 mm 0.00 in0.0 mm
09:11 AM 43.1°F6.2°C 42.6°F5.9°C 98% Calm Calm 5.3 mph8.5 kmh 30.14 in1020.7 mb 0.00 in0.0 mm 0.00 in0.0 mm 0.00 in0.0 mm
09:41 AM 43.3°F6.3°C 43.1°F6.2°C 99% 5.1 mph N8.2 kmh N 10.0 mph16.1 kmh 30.16 in1021.3 mb 0.00 in0.0 mm 0.00 in0.0 mm 0.00 in0.0 mm
10:11 AM 43.1°F6.2°C 43.1°F6.2°C 100% 7.4 mph 11.9 kmh 10.9 mph17.5 kmh 30.19 in1022.4 mb 0.00 in0.0 mm 0.00 in0.0 mm 0.00 in0.0 mm
10:41 AM 41.9°F5.5°C 41.9°F5.5°C 100% 7.7 mph N12.4 kmh N 15.9 mph25.6 kmh 30.19 in1022.4 mb 0.00 in0.0 mm 0.00 in0.0 mm 0.00 in0.0 mm
11:11 AM 43.1°F6.2°C 43.1°F6.2°C 100% 2.9 mph N4.7 kmh N 9.0 mph14.5 kmh 30.20 in1022.7 mb 0.00 in0.0 mm 0.00 in0.0 mm 0.00 in0.0 mm
11:41 AM 45.6°F7.6°C 44.1°F6.7°C 94% 8.8 mph 14.2 kmh 12.1 mph19.5 kmh 30.20 in1022.7 mb 0.00 in0.0 mm 0.00 in0.0 mm 0.00 in0.0 mm
12:11 PM 47.3°F8.5°C 44.1°F6.7°C 88% 11.1 mph N17.9 kmh N 17.5 mph28.2 kmh 30.20 in1022.7 mb 0.00 in0.0 mm 0.00 in0.0 mm 0.00 in0.0 mm
12:41 PM 47.4°F8.6°C 43.2°F6.2°C 85% 11.4 mph 18.3 kmh 21.5 mph34.6 kmh 30.20 in1022.7 mb 0.00 in0.0 mm 0.00 in0.0 mm 0.00 in0.0 mm
01:11 PM 47.4°F8.6°C 43.3°F6.3°C 85% 8.7 mph 14.0 kmh 14.3 mph23.0 kmh 30.21 in1023.0 mb 0.00 in0.0 mm 0.00 in0.0 mm 0.00 in0.0 mm
01:41 PM 46.7°F8.2°C 42.3°F5.7°C 84% 8.3 mph N13.4 kmh N 11.8 mph19.0 kmh 30.21 in1023.0 mb 0.00 in0.0 mm 0.00 in0.0 mm 0.00 in0.0 mm
02:11 PM 47.3°F8.5°C 42.6°F5.9°C 83% 7.4 mph N11.9 kmh N 10.9 mph17.5 kmh 30.21 in1023.0 mb 0.00 in0.0 mm 0.00 in0.0 mm 0.00 in0.0 mm
02:41 PM 47.6°F8.7°C 43.0°F6.1°C 83% 7.9 mph N12.7 kmh N 12.5 mph20.1 kmh 30.21 in1023.0 mb 0.00 in0.0 mm 0.00 in0.0 mm 0.00 in0.0 mm
03:11 PM 47.6°F8.7°C 43.0°F6.1°C 84% 3.3 mph N5.3 kmh N 12.1 mph19.5 kmh 30.22 in1023.4 mb 0.00 in0.0 mm 0.00 in0.0 mm 0.00 in0.0 mm
03:41 PM 47.8°F8.8°C 42.7°F5.9°C 82% 4.6 mph 7.4 kmh 9.0 mph14.5 kmh 30.22 in1023.4 mb 0.00 in0.0 mm 0.00 in0.0 mm 0.00 in0.0 mm
04:11 PM 48.5°F9.2°C 41.7°F5.4°C 77% 7.5 mph 12.1 kmh 12.8 mph20.6 kmh 30.22 in1023.4 mb 0.00 in0.0 mm 0.00 in0.0 mm 0.00 in0.0 mm
04:57 PM 48.5°F9.2°C 42.5°F5.8°C 79% 3.1 mph N5.0 kmh N 6.2 mph10.0 kmh 30.23 in1023.7 mb 0.00 in0.0 mm 0.00 in0.0 mm 0.00 in0.0 mm
05:27 PM 46.5°F8.1°C 41.3°F5.2°C 81% 3.0 mph 4.8 kmh 4.6 mph7.4 kmh 30.24 in1024.0 mb 0.00 in0.0 mm 0.00 in0.0 mm 0.00 in0.0 mm
05:57 PM 44.7°F7.1°C 41.2°F5.1°C 87% Calm Calm -- 30.25 in1024.4 mb 0.00 in0.0 mm 0.00 in0.0 mm 0.00 in0.0 mm
06:27 PM 41.9°F5.5°C 40.2°F4.6°C 93% Calm Calm -- 30.26 in1024.7 mb 0.00 in0.0 mm 0.00 in0.0 mm 0.00 in0.0 mm
06:57 PM 40.1°F4.5°C 39.3°F4.1°C 97% Calm Calm -- 30.27 in1025.1 mb 0.00 in0.0 mm 0.00 in0.0 mm 0.00 in0.0 mm
07:27 PM 38.1°F3.4°C 38.1°F3.4°C 100% Calm Calm -- 30.28 in1025.4 mb 0.00 in0.0 mm 0.00 in0.0 mm 0.00 in0.0 mm
07:57 PM 36.1°F2.3°C 36.1°F2.3°C 100% Calm Calm -- 30.30 in1026.1 mb 0.00 in0.0 mm 0.00 in0.0 mm 0.00 in0.0 mm
08:27 PM 35.0°F1.7°C 35.0°F1.7°C 100% Calm Calm -- 30.31 in1026.4 mb 0.00 in0.0 mm 0.00 in0.0 mm 0.00 in0.0 mm
08:57 PM 35.6°F2.0°C 35.6°F2.0°C 100% Calm Calm -- 30.31 in1026.4 mb 0.00 in0.0 mm 0.00 in0.0 mm 0.00 in0.0 mm
09:27 PM 35.4°F1.9°C 35.4°F1.9°C 100% Calm Calm -- 30.31 in1026.4 mb 0.00 in0.0 mm 0.00 in0.0 mm 0.00 in0.0 mm
09:57 PM 35.0°F1.7°C 35.0°F1.7°C 100% Calm Calm -- 30.31 in1026.4 mb 0.00 in0.0 mm 0.00 in0.0 mm 0.00 in0.0 mm
10:27 PM 33.0°F0.6°C 33.0°F0.6°C 100% Calm Calm -- 30.30 in1026.1 mb 0.00 in0.0 mm 0.00 in0.0 mm 0.00 in0.0 mm
10:57 PM 32.0°F0.0°C 32.0°F0.0°C 100% Calm Calm -- 30.30 in1026.1 mb 0.00 in0.0 mm 0.00 in0.0 mm 0.00 in0.0 mm
11:27 PM 31.6°F-0.2°C 31.6°F-0.2°C 100% Calm Calm -- 30.30 in1026.1 mb 0.00 in0.0 mm 0.00 in0.0 mm 0.00 in0.0 mm
11:57 PM 30.7°F-0.7°C 30.7°F-0.7°C 100% Calm Calm -- 30.29 in1025.7 mb 0.00 in0.0 mm 0.00 in0.0 mm 0.00 in0.0 mm